createdAt,value
2019-03-06T00:01:23.987Z,56.63
2019-03-06T00:03:57.243Z,57.55
2019-03-06T00:06:30.699Z,58.70
2019-03-06T00:09:05.311Z,60.16
2019-03-06T00:11:39.843Z,61.14
2019-03-06T00:14:12.707Z,62.07
2019-03-06T00:16:45.535Z,62.69
2019-03-06T00:19:18.586Z,66.31
2019-03-06T00:21:51.540Z,60.53
2019-03-06T00:24:24.357Z,52.57
2019-03-06T00:26:57.165Z,52.61
2019-03-06T00:29:29.983Z,53.88
2019-03-06T00:32:02.958Z,55.46
2019-03-06T00:34:35.879Z,56.83
2019-03-06T00:37:08.646Z,58.09
2019-03-06T00:40:00.365Z,58.75
2019-03-06T00:42:36.609Z,59.98
2019-03-06T00:45:10.593Z,61.77
2019-03-06T00:47:43.435Z,62.32
2019-03-06T00:50:16.179Z,66.84
2019-03-06T00:52:49.030Z,58.81
2019-03-06T00:55:22.372Z,53.26
2019-03-06T00:57:55.253Z,53.54
2019-03-06T01:00:29.318Z,54.80
2019-03-06T01:03:02.204Z,56.18
2019-03-06T01:05:34.984Z,57.69
2019-03-06T01:08:07.894Z,58.39
2019-03-06T01:10:41.144Z,60.15
2019-03-06T01:13:14.215Z,61.96
2019-03-06T01:15:47.355Z,62.50
2019-03-06T01:18:20.147Z,65.29
2019-03-06T01:20:53.047Z,58.60
2019-03-06T01:23:25.994Z,52.01
2019-03-06T01:25:58.798Z,53.20
2019-03-06T01:28:31.551Z,54.48
2019-03-06T01:31:04.305Z,55.65
2019-03-06T01:33:54.695Z,56.95
2019-03-06T01:36:49.552Z,58.60
2019-03-06T01:39:49.557Z,59.65
2019-03-06T01:42:35.350Z,61.22
2019-03-06T01:45:10.952Z,61.92
2019-03-06T01:47:43.717Z,63.67
2019-03-06T01:50:17.019Z,67.10
2019-03-06T01:52:50.144Z,59.38
2019-03-06T01:55:23.028Z,52.80
2019-03-06T01:57:55.899Z,53.19
2019-03-06T02:00:28.850Z,54.54
2019-03-06T02:03:01.962Z,55.83
2019-03-06T02:05:34.839Z,57.23
2019-03-06T02:08:08.099Z,58.61
2019-03-06T02:10:41.597Z,59.51
2019-03-06T02:13:14.528Z,60.63
2019-03-06T02:15:47.363Z,61.88
2019-03-06T02:18:20.217Z,63.62
2019-03-06T02:20:53.126Z,67.81
2019-03-06T02:23:26.053Z,59.25
2019-03-06T02:25:58.941Z,53.16
2019-03-06T02:28:31.869Z,53.63
2019-03-06T02:31:04.660Z,54.63
2019-03-06T02:33:37.540Z,55.55
2019-03-06T02:36:11.602Z,56.81
2019-03-06T02:38:44.757Z,57.90
2019-03-06T02:41:18.675Z,59.07
2019-03-06T02:43:51.554Z,60.11
2019-03-06T02:46:24.453Z,60.74
2019-03-06T02:48:57.532Z,61.89
2019-03-06T02:51:30.405Z,67.29
2019-03-06T02:54:03.477Z,60.85
2019-03-06T02:56:36.342Z,52.47
2019-03-06T02:59:27.960Z,48.41
2019-03-06T03:02:18.360Z,49.35
2019-03-06T03:05:02.203Z,50.89
2019-03-06T03:07:38.957Z,52.23
2019-03-06T03:10:14.965Z,53.64
2019-03-06T03:12:55.379Z,54.85
2019-03-06T03:15:28.788Z,55.87
2019-03-06T03:18:02.098Z,57.42
2019-03-06T03:20:36.447Z,58.77
2019-03-06T03:23:09.495Z,59.64
2019-03-06T03:25:42.829Z,61.10
2019-03-06T03:28:16.183Z,62.45
2019-03-06T03:30:50.456Z,67.74
2019-03-06T03:33:23.510Z,59.87
2019-03-06T03:35:56.396Z,52.60
2019-03-06T03:38:29.336Z,52.85
2019-03-06T03:41:03.063Z,54.17
2019-03-06T03:43:36.089Z,55.31
2019-03-06T03:46:09.071Z,56.60
2019-03-06T03:48:41.945Z,57.58
2019-03-06T03:51:14.757Z,58.57
2019-03-06T03:53:47.806Z,59.86
2019-03-06T03:56:20.842Z,60.52
2019-03-06T03:58:53.826Z,61.87
2019-03-06T04:01:26.722Z,67.17
2019-03-06T04:04:00.632Z,59.62
2019-03-06T04:06:33.575Z,53.18
2019-03-06T04:09:08.453Z,52.90
2019-03-06T04:11:43.411Z,53.61
2019-03-06T04:14:16.959Z,54.49
2019-03-06T04:16:49.968Z,55.70
2019-03-06T04:19:22.803Z,56.77
2019-03-06T04:21:55.864Z,57.88
2019-03-06T04:24:29.141Z,58.89
2019-03-06T04:27:03.937Z,59.78
2019-03-06T04:29:36.763Z,60.63
2019-03-06T04:32:09.664Z,62.06
2019-03-06T04:34:42.686Z,67.63
2019-03-06T04:37:15.659Z,60.11
2019-03-06T04:39:49.929Z,52.27
2019-03-06T04:42:22.762Z,51.99
2019-03-06T04:44:55.594Z,52.76
2019-03-06T04:47:29.493Z,53.98
2019-03-06T04:50:02.357Z,55.43
2019-03-06T04:52:36.365Z,56.43
2019-03-06T04:55:10.479Z,57.71
2019-03-06T04:57:46.051Z,58.87
2019-03-06T05:00:19.272Z,59.74
2019-03-06T05:02:52.237Z,61.02
2019-03-06T05:05:25.163Z,66.97
2019-03-06T05:07:58.103Z,61.07
2019-03-06T05:10:39.312Z,53.08
2019-03-06T05:13:14.943Z,49.04
2019-03-06T05:15:49.853Z,49.50
2019-03-06T05:18:30.168Z,50.72
2019-03-06T05:21:03.370Z,51.95
2019-03-06T05:23:38.439Z,53.09
2019-03-06T05:26:13.698Z,54.40
2019-03-06T05:28:49.743Z,55.36
2019-03-06T05:31:22.578Z,56.69
2019-03-06T05:33:55.447Z,58.28
2019-03-06T05:37:20.384Z,59.82
2019-03-06T05:39:53.303Z,63.70
2019-03-06T05:42:26.477Z,65.58
2019-03-06T05:44:59.458Z,58.52
2019-03-06T05:47:32.311Z,51.14
2019-03-06T05:50:05.330Z,51.36
2019-03-06T05:52:38.293Z,52.46
2019-03-06T05:55:13.125Z,53.43
2019-03-06T05:57:46.088Z,54.88
2019-03-06T06:00:20.625Z,55.86
2019-03-06T06:02:53.842Z,57.50
2019-03-06T06:05:28.210Z,58.41
2019-03-06T06:08:01.116Z,59.68
2019-03-06T06:10:34.669Z,60.15
2019-03-06T06:13:07.645Z,60.93
2019-03-06T06:15:40.390Z,67.46
2019-03-06T06:18:13.214Z,62.55
2019-03-06T06:20:47.606Z,54.25
2019-03-06T06:23:42.278Z,49.21
2019-03-06T06:26:15.009Z,49.70
2019-03-06T06:28:47.799Z,50.73
2019-03-06T06:31:20.886Z,51.84
2019-03-06T06:33:53.865Z,53.17
2019-03-06T06:36:26.776Z,54.51
2019-03-06T06:38:59.631Z,55.46
2019-03-06T06:41:32.517Z,56.87
2019-03-06T06:44:07.772Z,58.16
2019-03-06T06:46:40.671Z,58.85
2019-03-06T06:49:13.629Z,59.79
2019-03-06T06:52:22.628Z,61.34
2019-03-06T06:55:34.342Z,62.09
2019-03-06T06:58:51.734Z,67.62
2019-03-06T07:02:10.720Z,58.54
2019-03-06T07:05:30.397Z,51.53
2019-03-06T07:08:20.688Z,52.30
2019-03-06T07:11:14.558Z,53.27
2019-03-06T07:14:06.421Z,54.70
2019-03-06T07:16:57.512Z,56.04
2019-03-06T07:19:40.276Z,56.96
2019-03-06T07:22:18.092Z,58.37
2019-03-06T07:25:02.950Z,59.04
2019-03-06T07:27:56.368Z,59.63
2019-03-06T07:30:57.054Z,60.74
2019-03-06T07:34:01.254Z,61.72
2019-03-06T07:37:05.655Z,62.45
2019-03-06T07:39:57.277Z,69.04
2019-03-06T07:42:42.167Z,60.37
2019-03-06T07:46:05.787Z,52.71
2019-03-06T07:49:19.418Z,52.73
2019-03-06T07:52:09.691Z,53.86
2019-03-06T07:55:00.322Z,54.82
2019-03-06T07:57:41.586Z,56.24
2019-03-06T08:00:20.985Z,56.88
2019-03-06T08:03:20.344Z,57.79
2019-03-06T08:05:53.266Z,58.55
2019-03-06T08:08:26.022Z,59.17
2019-03-06T08:10:59.688Z,60.51
2019-03-06T08:13:41.296Z,61.37
2019-03-06T08:16:23.586Z,61.83
2019-03-06T08:19:18.875Z,62.35
2019-03-06T08:22:16.948Z,66.91
2019-03-06T08:24:58.893Z,59.02
2019-03-06T08:27:31.814Z,51.42
2019-03-06T08:30:07.381Z,51.56
2019-03-06T08:32:40.176Z,52.17
2019-03-06T08:35:14.666Z,52.94
2019-03-06T08:37:47.567Z,53.58
2019-03-06T08:40:20.341Z,54.40
2019-03-06T08:42:53.267Z,55.08
2019-03-06T08:45:30.102Z,56.07
2019-03-06T08:48:09.487Z,56.54
2019-03-06T08:50:49.461Z,57.06
2019-03-06T08:53:33.330Z,56.98
2019-03-06T08:56:13.603Z,57.29
2019-03-06T08:59:05.416Z,56.75
2019-03-06T09:02:00.637Z,56.61
2019-03-06T09:04:55.754Z,56.31
2019-03-06T09:07:46.397Z,55.45
2019-03-06T09:10:49.204Z,55.16
2019-03-06T09:13:42.290Z,54.54
2019-03-06T09:16:31.077Z,53.74
2019-03-06T09:19:22.463Z,53.63
2019-03-06T09:22:26.362Z,51.97
2019-03-06T09:25:16.823Z,50.31
2019-03-06T09:28:05.008Z,50.07
2019-03-06T09:31:13.651Z,50.21
2019-03-06T09:34:03.396Z,49.04
2019-03-06T09:36:45.871Z,48.91
2019-03-06T09:39:44.115Z,48.50
2019-03-06T09:42:38.544Z,47.59
2019-03-06T09:45:38.181Z,47.00
2019-03-06T09:48:32.657Z,45.73
2019-03-06T09:51:22.776Z,47.03
2019-03-06T09:54:17.383Z,44.11
2019-03-06T09:57:21.348Z,44.22
2019-03-06T10:00:03.440Z,42.65
2019-03-06T10:02:48.482Z,41.88
2019-03-06T10:05:26.765Z,39.68
2019-03-06T10:08:17.197Z,41.16
2019-03-06T10:11:04.695Z,39.59
2019-03-06T10:13:53.432Z,38.60
2019-03-06T10:16:49.739Z,37.15
2019-03-06T10:19:31.447Z,38.55
2019-03-06T10:22:04.530Z,36.65
2019-03-06T10:24:37.327Z,35.85
2019-03-06T10:27:13.563Z,34.91
2019-03-06T10:29:46.469Z,35.04
2019-03-06T10:32:19.372Z,35.12
2019-03-06T10:34:52.300Z,36.45
2019-03-06T10:37:25.278Z,35.62
2019-03-06T10:39:58.282Z,32.41
2019-03-06T10:42:31.085Z,34.71
2019-03-06T10:45:04.026Z,33.37
2019-03-06T10:47:38.232Z,32.32
2019-03-06T10:50:14.032Z,33.37
2019-03-06T10:52:46.945Z,32.34
2019-03-06T10:55:20.621Z,33.41
2019-03-06T10:57:53.504Z,31.90
2019-03-06T11:00:29.813Z,32.38
2019-03-06T11:03:03.259Z,32.84
2019-03-06T11:05:36.488Z,33.42
2019-03-06T11:08:09.842Z,31.91
2019-03-06T11:10:43.131Z,33.46
2019-03-06T11:13:16.186Z,32.86
2019-03-06T11:15:55.716Z,34.08
2019-03-06T11:18:24.770Z,34.06
2019-03-06T11:20:57.991Z,30.74
2019-03-06T11:23:31.179Z,30.95
2019-03-06T11:26:05.549Z,32.07
2019-03-06T11:28:40.178Z,34.12
2019-03-06T11:31:13.960Z,31.44
2019-03-06T11:33:47.206Z,33.16
2019-03-06T11:36:20.710Z,31.39
2019-03-06T11:38:53.993Z,33.23
2019-03-06T11:41:27.159Z,32.16
2019-03-06T11:44:00.461Z,31.68
2019-03-06T11:46:33.752Z,31.93
2019-03-06T11:49:07.735Z,33.14
2019-03-06T11:51:40.700Z,34.04
2019-03-06T11:54:13.996Z,34.31
2019-03-06T11:56:47.363Z,32.48
2019-03-06T11:59:21.180Z,34.16
2019-03-06T12:01:55.327Z,34.41
2019-03-06T12:04:28.648Z,33.46
2019-03-06T12:07:01.812Z,35.25
2019-03-06T12:09:35.070Z,34.21
2019-03-06T12:12:08.059Z,34.65
2019-03-06T12:14:41.603Z,34.13
2019-03-06T12:17:14.911Z,34.50
2019-03-06T12:19:48.354Z,34.32
2019-03-06T12:22:21.397Z,35.06
2019-03-06T12:24:54.394Z,32.51
2019-03-06T12:27:29.067Z,31.98
2019-03-06T12:30:02.223Z,31.82
2019-03-06T12:32:36.620Z,33.04
2019-03-06T12:35:09.625Z,33.38
2019-03-06T12:37:46.897Z,31.56
2019-03-06T12:40:18.032Z,32.14
2019-03-06T12:42:50.961Z,33.57
2019-03-06T12:45:24.177Z,33.98
2019-03-06T12:47:57.082Z,31.91
2019-03-06T12:50:31.406Z,34.02
2019-03-06T12:53:04.342Z,32.34
2019-03-06T12:55:37.403Z,30.77
2019-03-06T12:58:10.569Z,31.18
2019-03-06T13:00:44.681Z,31.57
2019-03-06T13:03:18.314Z,32.28
2019-03-06T13:05:51.223Z,32.08
2019-03-06T13:08:24.239Z,33.14
2019-03-06T13:10:58.474Z,33.60
2019-03-06T13:13:35.474Z,32.28
2019-03-06T13:16:06.741Z,32.52
2019-03-06T13:18:39.672Z,32.57
2019-03-06T13:21:12.815Z,32.86
2019-03-06T13:23:45.830Z,32.74
2019-03-06T13:26:20.663Z,32.70
2019-03-06T13:28:57.529Z,33.35
2019-03-06T13:31:28.414Z,32.86
2019-03-06T13:34:06.508Z,33.38
2019-03-06T13:36:39.447Z,34.15
2019-03-06T13:39:12.610Z,34.04
2019-03-06T13:41:46.086Z,34.24
2019-03-06T13:44:19.640Z,34.65
2019-03-06T13:46:53.819Z,34.98
2019-03-06T13:49:26.906Z,35.83
2019-03-06T13:52:00.101Z,35.97
2019-03-06T13:54:33.271Z,36.25
2019-03-06T13:57:06.297Z,36.67
2019-03-06T13:59:39.399Z,36.01
2019-03-06T14:02:12.438Z,37.13
2019-03-06T14:04:45.619Z,35.68
2019-03-06T14:07:18.401Z,36.23
2019-03-06T14:09:51.567Z,36.12
2019-03-06T14:12:26.052Z,35.28
2019-03-06T14:14:59.132Z,35.37
2019-03-06T14:17:34.004Z,35.34
2019-03-06T14:20:07.814Z,36.28
2019-03-06T14:22:40.884Z,36.24
2019-03-06T14:25:15.573Z,36.27
2019-03-06T14:27:48.892Z,36.29
2019-03-06T14:30:22.585Z,36.81
2019-03-06T14:32:55.554Z,36.26
2019-03-06T14:35:29.958Z,36.96
2019-03-06T14:38:09.010Z,36.75
2019-03-06T14:40:42.365Z,37.38
2019-03-06T14:43:18.585Z,38.47
2019-03-06T14:45:55.117Z,38.55
2019-03-06T14:48:28.559Z,39.41
2019-03-06T14:51:02.211Z,40.02
2019-03-06T14:53:35.346Z,40.53
2019-03-06T14:56:10.137Z,41.29
2019-03-06T14:58:43.042Z,40.48
2019-03-06T15:01:21.084Z,39.73
2019-03-06T15:03:55.151Z,40.55
2019-03-06T15:06:30.437Z,39.28
2019-03-06T15:09:15.966Z,39.59
2019-03-06T15:11:48.946Z,39.74
2019-03-06T15:14:22.925Z,39.68
2019-03-06T15:16:55.909Z,39.88
2019-03-06T15:19:29.822Z,40.64
2019-03-06T15:22:06.322Z,40.85
2019-03-06T15:24:41.953Z,41.39
2019-03-06T15:27:15.880Z,41.84
2019-03-06T15:30:00.196Z,42.15
2019-03-06T15:32:39.455Z,42.77
2019-03-06T15:35:13.777Z,43.32
2019-03-06T15:37:51.406Z,43.68
2019-03-06T15:40:28.731Z,43.88
2019-03-06T15:43:01.773Z,44.08
2019-03-06T15:45:34.865Z,44.84
2019-03-06T15:48:08.202Z,44.58
2019-03-06T15:50:41.103Z,45.51
2019-03-06T15:53:24.062Z,45.91
2019-03-06T15:55:53.916Z,46.08
2019-03-06T15:58:27.047Z,45.29
2019-03-06T16:01:02.883Z,46.58
2019-03-06T16:03:37.311Z,46.49
2019-03-06T16:06:19.905Z,46.49
2019-03-06T16:08:44.787Z,46.84
2019-03-06T16:11:19.740Z,47.03
2019-03-06T16:13:53.069Z,47.26
2019-03-06T16:16:27.377Z,47.22
2019-03-06T16:19:00.251Z,47.22
2019-03-06T16:21:35.312Z,47.65
2019-03-06T16:24:09.854Z,47.76
2019-03-06T16:26:43.972Z,48.05
2019-03-06T16:29:17.040Z,48.23
2019-03-06T16:31:51.136Z,48.83
2019-03-06T16:34:24.096Z,48.45
2019-03-06T16:37:01.668Z,48.51
2019-03-06T16:39:40.451Z,49.35
2019-03-06T16:42:13.286Z,49.37
2019-03-06T16:44:46.340Z,49.38
2019-03-06T16:47:19.956Z,49.48
2019-03-06T16:49:53.273Z,49.23
2019-03-06T16:52:26.730Z,49.26
2019-03-06T16:55:01.800Z,49.21
2019-03-06T16:57:34.972Z,49.14
2019-03-06T17:00:26.903Z,49.28
2019-03-06T17:03:06.659Z,49.53
2019-03-06T17:05:44.564Z,49.40
2019-03-06T17:08:20.955Z,49.54
2019-03-06T17:10:54.161Z,49.71
2019-03-06T17:13:27.170Z,50.51
2019-03-06T17:16:00.791Z,50.53
2019-03-06T17:18:33.856Z,50.63
2019-03-06T17:21:06.864Z,51.20
2019-03-06T17:23:39.912Z,51.64
2019-03-06T17:26:12.805Z,51.89
2019-03-06T17:28:45.782Z,51.72
2019-03-06T17:31:18.802Z,52.22
2019-03-06T17:33:51.693Z,52.29
2019-03-06T17:36:24.891Z,52.33
2019-03-06T17:39:00.773Z,52.55
2019-03-06T17:41:35.402Z,52.57
2019-03-06T17:44:08.538Z,51.83
2019-03-06T17:46:41.474Z,51.19
2019-03-06T17:49:19.170Z,52.31
2019-03-06T17:51:53.011Z,52.43
2019-03-06T17:54:28.172Z,52.01
2019-03-06T17:57:01.222Z,52.30
2019-03-06T17:59:34.927Z,51.94
2019-03-06T18:02:15.560Z,51.76
2019-03-06T18:04:48.577Z,51.64
2019-03-06T18:07:21.907Z,51.67
2019-03-06T18:09:54.876Z,51.85
2019-03-06T18:12:30.814Z,51.51
2019-03-06T18:15:03.902Z,51.54
2019-03-06T18:17:37.004Z,51.60
2019-03-06T18:20:13.763Z,51.64
2019-03-06T18:22:47.136Z,51.16
2019-03-06T18:25:20.332Z,51.36
2019-03-06T18:27:53.448Z,51.43
2019-03-06T18:30:27.190Z,51.62
2019-03-06T18:33:01.693Z,51.58
2019-03-06T18:35:34.896Z,51.33
2019-03-06T18:38:13.142Z,51.34
2019-03-06T18:40:46.564Z,51.33
2019-03-06T18:43:19.883Z,51.41
2019-03-06T18:45:53.229Z,51.66
2019-03-06T18:48:26.801Z,51.67
2019-03-06T18:50:59.824Z,51.81
2019-03-06T18:53:32.792Z,51.62
2019-03-06T18:56:06.108Z,51.64
2019-03-06T18:58:39.171Z,51.82
2019-03-06T19:01:12.252Z,51.89
2019-03-06T19:03:45.523Z,51.79
2019-03-06T19:06:20.780Z,52.28
2019-03-06T19:08:53.865Z,52.96
2019-03-06T19:11:26.915Z,53.12
2019-03-06T19:13:59.980Z,53.55
2019-03-06T19:16:33.080Z,53.37
2019-03-06T19:19:07.505Z,53.96
2019-03-06T19:21:41.077Z,54.17
2019-03-06T19:24:14.439Z,54.07
2019-03-06T19:26:47.599Z,54.50
2019-03-06T19:29:20.882Z,54.99
2019-03-06T19:31:54.009Z,55.17
2019-03-06T19:34:27.391Z,54.95
2019-03-06T19:37:00.571Z,55.10
2019-03-06T19:39:33.599Z,55.70
2019-03-06T19:42:06.729Z,55.91
2019-03-06T19:44:40.769Z,56.08
2019-03-06T19:47:16.579Z,56.56
2019-03-06T19:49:49.919Z,57.06
2019-03-06T19:52:23.111Z,56.54
2019-03-06T19:54:56.401Z,56.57
2019-03-06T19:57:36.614Z,56.79
2019-03-06T20:00:12.476Z,56.74
2019-03-06T20:02:47.097Z,56.90
2019-03-06T20:05:20.636Z,57.17
2019-03-06T20:07:54.170Z,56.67
2019-03-06T20:10:28.950Z,57.47
2019-03-06T20:13:03.314Z,58.48
2019-03-06T20:15:41.871Z,58.24
2019-03-06T20:18:18.444Z,58.72
2019-03-06T20:20:53.428Z,58.84
2019-03-06T20:23:32.422Z,58.50
2019-03-06T20:26:13.865Z,58.30
2019-03-06T20:28:41.700Z,58.11
2019-03-06T20:31:14.817Z,57.99
2019-03-06T20:33:50.581Z,58.64
2019-03-06T20:36:26.992Z,58.63
2019-03-06T20:39:00.437Z,58.49
2019-03-06T20:41:35.370Z,58.63
2019-03-06T20:44:08.873Z,58.79
2019-03-06T20:46:45.506Z,59.48
2019-03-06T20:49:20.438Z,59.14
2019-03-06T20:51:53.953Z,59.73
2019-03-06T20:54:35.165Z,60.00
2019-03-06T20:57:09.358Z,59.67
2019-03-06T20:59:45.404Z,60.96
2019-03-06T21:02:18.760Z,60.13
2019-03-06T21:04:51.910Z,60.38
2019-03-06T21:07:26.300Z,61.02
2019-03-06T21:09:59.568Z,60.41
2019-03-06T21:12:32.913Z,60.66
2019-03-06T21:15:06.821Z,61.01
2019-03-06T21:17:39.910Z,60.84
2019-03-06T21:20:15.967Z,60.95
2019-03-06T21:22:49.033Z,61.34
2019-03-06T21:25:22.052Z,61.51
2019-03-06T21:27:55.554Z,61.24
2019-03-06T21:30:31.066Z,61.11
2019-03-06T21:33:05.952Z,60.98
2019-03-06T21:35:44.224Z,60.91
2019-03-06T21:38:17.116Z,60.75
2019-03-06T21:40:50.284Z,60.66
2019-03-06T21:43:23.399Z,60.99
2019-03-06T21:45:56.434Z,60.77
2019-03-06T21:48:33.723Z,60.84
2019-03-06T21:51:07.432Z,60.69
2019-03-06T21:53:40.459Z,60.90
2019-03-06T21:56:13.582Z,60.99
2019-03-06T21:58:46.802Z,61.02
2019-03-06T22:01:20.104Z,60.99
2019-03-06T22:03:53.137Z,60.86
2019-03-06T22:06:26.020Z,60.83
2019-03-06T22:08:59.052Z,60.67
2019-03-06T22:11:32.449Z,60.67
2019-03-06T22:14:05.335Z,61.15
2019-03-06T22:16:38.286Z,61.32
2019-03-06T22:19:11.190Z,61.43
2019-03-06T22:21:44.159Z,61.51
2019-03-06T22:24:17.144Z,61.26
2019-03-06T22:26:50.188Z,61.63
2019-03-06T22:29:23.208Z,61.82
2019-03-06T22:31:56.067Z,61.87
2019-03-06T22:34:29.443Z,61.61
2019-03-06T22:37:02.583Z,61.65
2019-03-06T22:39:43.251Z,61.86
2019-03-06T22:42:34.571Z,61.67
2019-03-06T22:45:11.551Z,61.79
2019-03-06T22:47:44.564Z,61.96
2019-03-06T22:50:19.441Z,62.09
2019-03-06T22:52:55.769Z,64.40
2019-03-06T22:55:30.085Z,59.61
2019-03-06T22:58:03.218Z,49.64
2019-03-06T23:01:22.698Z,47.71
2019-03-06T23:03:58.066Z,48.37
2019-03-06T23:06:30.947Z,49.23
2019-03-06T23:09:05.772Z,50.21
2019-03-06T23:11:40.622Z,50.72
2019-03-06T23:14:17.718Z,51.54
2019-03-06T23:16:50.729Z,52.44
2019-03-06T23:19:24.329Z,53.15
2019-03-06T23:21:57.215Z,54.01
2019-03-06T23:24:30.010Z,54.25
2019-03-06T23:27:03.644Z,55.30
2019-03-06T23:29:36.831Z,56.02
2019-03-06T23:32:09.583Z,56.81
2019-03-06T23:34:42.405Z,57.19
2019-03-06T23:37:15.286Z,58.24
2019-03-06T23:39:48.430Z,58.01
2019-03-06T23:42:21.374Z,58.17
2019-03-06T23:44:56.084Z,59.11
2019-03-06T23:47:29.207Z,60.01
2019-03-06T23:50:05.529Z,60.68
2019-03-06T23:52:58.073Z,60.30
2019-03-06T23:55:31.368Z,60.94
2019-03-06T23:58:09.508Z,60.90
